Terminal Aerodrome Forecast
Issued by NWS

Home | Current Version | Previous Version | Text Only | Print | Product List | Glossary On
Versions: 1 2 3 4 5 6 7 8 9 10 11 12 13 14 15 16 17 18 19 20 21 22 23 24 25 26 27 28 29 30 31 32
840
FTUS41 KPHI 252323
TAFMIV
TAF
KMIV 252323Z 2600/2624 VRB03KT P6SM OVC006
      TEMPO 2601/2604 6SM BR SCT006 OVC010
     FM260400 VRB03KT P6SM OVC026
     FM260500 VRB03KT 3SM BR OVC040
     FM261000 31005KT P6SM BKN100
     FM261800 31008KT P6SM BKN100
     FM262300 29005KT P6SM SKC=

USA.gov is the U.S. government's official web portal to all federal, state and local government web resources and services.